Time;durP1;ratioP1;P1;durP2;ratioP2;P2;SDS_P1;SDS_P2;PMS_P1;PMS_P2;Temp;Humidity;BMP_temperature;BMP_pressure;BME280_temperature;BME280_humidity;BME280_pressure;Samples;Min_cycle;Max_cycle;Signal;HPM_P1;HPM_P2
2022/03/19 00:01:50;;;;;;;14.90;13.50;;;;;;;-2.91;59.04;94633.22;5055507;28;20185;-74
2022/03/19 00:04:16;;;;;;;14.47;12.97;;;;;;;-2.76;59.00;94647.09;5072597;28;20237;-74
2022/03/19 00:06:45;;;;;;;14.00;12.90;;;;;;;-2.82;58.74;94629.81;5072574;28;20182;-74
2022/03/19 00:09:11;;;;;;;14.07;12.80;;;;;;;-2.70;58.31;94654.16;5071717;28;21109;-73
2022/03/19 00:11:36;;;;;;;14.80;13.43;;;;;;;-2.84;59.15;94633.44;5071900;28;20288;-75
2022/03/19 00:14:02;;;;;;;16.33;14.73;;;;;;;-3.20;62.34;94642.88;5070376;28;20251;-74
2022/03/19 00:16:28;;;;;;;14.10;12.90;;;;;;;-3.31;61.58;94625.22;5071987;28;20193;-73
2022/03/19 00:18:53;;;;;;;14.97;13.57;;;;;;;-3.23;61.82;94627.88;5072150;28;20240;-74
2022/03/19 00:21:19;;;;;;;16.60;15.00;;;;;;;-3.07;61.46;94656.09;5073450;28;20197;-74
2022/03/19 00:23:46;;;;;;;15.53;14.17;;;;;;;-3.02;59.31;94630.94;5072020;28;20266;-74
2022/03/19 00:26:12;;;;;;;15.93;14.43;;;;;;;-2.80;59.40;94661.09;5071934;28;20185;-74
2022/03/19 00:28:38;;;;;;;15.93;14.20;;;;;;;-3.02;59.13;94650.56;5071445;28;20243;-74
2022/03/19 00:31:04;;;;;;;15.17;13.57;;;;;;;-2.71;58.24;94646.66;5071431;28;20201;-74
2022/03/19 00:33:29;;;;;;;15.53;13.80;;;;;;;-2.63;58.04;94634.72;5071124;28;20926;-74
2022/03/19 00:35:55;;;;;;;16.70;14.43;;;;;;;-2.62;59.49;94649.13;5071651;28;20217;-74
2022/03/19 00:38:21;;;;;;;16.90;15.17;;;;;;;-2.57;59.23;94646.94;5071233;28;20193;-74
2022/03/19 00:40:47;;;;;;;16.73;15.03;;;;;;;-2.56;58.53;94647.72;5072806;28;20219;-73
2022/03/19 00:43:13;;;;;;;14.57;13.37;;;;;;;-2.71;59.15;94646.66;5071741;28;20205;-75
2022/03/19 00:45:38;;;;;;;14.90;13.53;;;;;;;-2.90;59.64;94634.84;5071356;28;20958;-74
2022/03/19 00:48:04;;;;;;;13.80;12.63;;;;;;;-3.00;59.83;94643.56;5070373;28;20261;-75
2022/03/19 00:50:30;;;;;;;13.97;12.60;;;;;;;-3.42;60.71;94649.22;5072461;28;20207;-74
2022/03/19 00:52:55;;;;;;;13.73;12.53;;;;;;;-3.22;61.14;94646.53;5072627;28;20192;-74
2022/03/19 00:55:21;;;;;;;13.97;12.77;;;;;;;-3.72;62.62;94636.00;5053167;28;20217;-74
2022/03/19 00:57:47;;;;;;;14.60;12.73;;;;;;;-3.18;61.89;94645.28;5071388;28;20219;-74
2022/03/19 01:00:15;;;;;;;13.87;12.70;;;;;;;-3.42;62.37;94648.41;5070982;28;20241;-74
2022/03/19 01:02:42;;;;;;;16.13;14.43;;;;;;;-3.27;62.47;94647.78;5070898;28;20197;-75
2022/03/19 01:05:10;;;;;;;14.97;13.57;;;;;;;-3.18;62.37;94620.56;5053061;28;20256;-74
2022/03/19 01:07:49;;;;;;;14.33;12.83;;;;;;;-2.84;61.61;94649.59;5070893;28;20189;-74
2022/03/19 01:10:17;;;;;;;14.87;13.47;;;;;;;-2.75;60.29;94646.13;5070278;28;20311;-74
2022/03/19 01:12:43;;;;;;;13.70;12.23;;;;;;;-2.79;60.45;94649.13;5070478;28;20185;-73
2022/03/19 01:15:09;;;;;;;14.40;12.90;;;;;;;-2.83;60.23;94646.06;5053042;28;20232;-75
2022/03/19 01:17:36;;;;;;;14.03;12.70;;;;;;;-2.71;60.37;94652.56;5071907;28;20255;-74
2022/03/19 01:20:03;;;;;;;15.90;14.33;;;;;;;-3.20;60.25;94625.00;5070690;28;20301;-74
2022/03/19 01:22:29;;;;;;;14.93;13.53;;;;;;;-3.07;61.01;94661.22;5069180;28;20193;-74
2022/03/19 01:24:55;;;;;;;16.97;15.40;;;;;;;-3.05;60.10;94650.84;5070581;28;20251;-74
2022/03/19 01:27:21;;;;;;;16.67;14.77;;;;;;;-2.97;59.22;94638.94;5071159;28;20197;-74
2022/03/19 01:29:47;;;;;;;17.53;15.27;;;;;;;-3.19;59.90;94616.38;5071564;28;20225;-74
2022/03/19 01:32:13;;;;;;;18.73;16.63;;;;;;;-3.15;59.90;94622.00;5071115;28;20225;-74
2022/03/19 01:34:39;;;;;;;19.27;17.20;;;;;;;-2.91;59.56;94617.13;5070383;28;20225;-74
2022/03/19 01:37:04;;;;;;;20.50;17.37;;;;;;;-2.84;59.93;94636.00;5070850;28;20288;-74
2022/03/19 01:39:31;;;;;;;22.70;18.23;;;;;;;-3.17;60.81;94622.16;5069988;28;20235;-74
2022/03/19 01:41:56;;;;;;;26.50;17.53;;;;;;;-3.00;61.34;94629.00;5070934;28;20193;-75
2022/03/19 01:44:22;;;;;;;23.97;18.30;;;;;;;-2.97;61.20;94623.59;5069747;28;20223;-74
2022/03/19 01:47:10;;;;;;;30.80;17.13;;;;;;;-3.18;62.15;94602.69;5069720;28;20243;-74
2022/03/19 01:49:37;;;;;;;16.90;15.13;;;;;;;-3.16;60.33;94628.91;5069087;28;20221;-74
2022/03/19 01:52:04;;;;;;;17.00;15.20;;;;;;;-3.40;60.66;94603.13;5070713;28;20201;-74
2022/03/19 01:54:33;;;;;;;15.63;13.93;;;;;;;-3.04;60.58;94620.06;5051452;28;20233;-75
2022/03/19 01:57:00;;;;;;;16.10;14.33;;;;;;;-3.29;60.28;94623.34;5070217;28;20232;-74
2022/03/19 01:59:30;;;;;;;15.10;13.63;;;;;;;-3.25;60.05;94598.31;5070584;28;20229;-75
2022/03/19 02:01:56;;;;;;;14.60;13.30;;;;;;;-3.75;61.55;94595.47;5070447;28;20201;-75
2022/03/19 02:04:22;;;;;;;15.80;14.20;;;;;;;-3.60;61.66;94614.44;5069615;28;20243;-74
2022/03/19 02:06:48;;;;;;;15.47;13.97;;;;;;;-3.38;61.48;94593.59;5069455;28;20185;-75
2022/03/19 02:09:14;;;;;;;15.10;13.37;;;;;;;-3.42;61.66;94597.34;5069736;28;20229;-74
2022/03/19 02:11:40;;;;;;;16.13;14.37;;;;;;;-3.42;61.17;94612.69;5069899;28;20219;-75
2022/03/19 02:14:06;;;;;;;15.00;13.50;;;;;;;-3.30;61.07;94611.53;5052309;28;20245;-74
2022/03/19 02:16:32;;;;;;;17.40;15.10;;;;;;;-3.41;60.33;94606.66;5068948;28;20209;-74
2022/03/19 02:18:58;;;;;;;19.70;14.73;;;;;;;-3.30;60.01;94622.53;5052057;28;20233;-75
2022/03/19 02:21:24;;;;;;;19.03;16.23;;;;;;;-3.16;59.78;94605.09;5070260;28;20182;-74
2022/03/19 02:26:45;;;;;;;19.27;16.27;;;;;;;-3.24;59.69;94610.94;5069524;28;20201;-75
2022/03/19 02:29:11;;;;;;;24.13;17.57;;;;;;;-3.23;60.67;94611.72;5069739;28;20944;-74
2022/03/19 02:31:40;;;;;;;16.97;15.07;;;;;;;-3.48;61.03;94574.97;5069584;28;20236;-75
2022/03/19 02:34:08;;;;;;;30.00;19.03;;;;;;;-3.45;60.28;94559.38;5068689;28;20241;-75
2022/03/19 02:36:35;;;;;;;31.30;20.07;;;;;;;-3.64;60.13;94555.22;5068502;28;20239;-75
2022/03/19 02:39:09;;;;;;;18.67;16.60;;;;;;;-3.35;60.59;94577.97;5069546;28;20230;-75
2022/03/19 02:41:34;;;;;;;17.67;14.37;;;;;;;-3.25;60.52;94609.31;5069186;28;20182;-75
2022/03/19 02:44:00;;;;;;;14.53;13.23;;;;;;;-3.49;62.18;94591.25;5069329;28;20889;-75
2022/03/19 02:46:43;;;;;;;15.27;13.87;;;;;;;-3.43;61.78;94590.66;5051440;28;21004;-74
2022/03/19 02:49:09;;;;;;;15.53;13.87;;;;;;;-3.34;62.37;94607.66;5051266;28;20225;-74
2022/03/19 02:51:39;;;;;;;15.30;13.80;;;;;;;-3.79;62.84;94599.22;5069703;28;20165;-75
2022/03/19 02:54:08;;;;;;;16.20;14.67;;;;;;;-4.11;63.31;94583.59;5049297;28;20236;-75
2022/03/19 02:56:35;;;;;;;16.17;14.50;;;;;;;-3.67;62.33;94613.38;5068678;28;20217;-74
2022/03/19 02:59:13;;;;;;;16.80;15.17;;;;;;;-3.96;63.59;94622.97;5068864;28;20225;-74
2022/03/19 03:01:39;;;;;;;19.57;16.40;;;;;;;-3.86;63.07;94623.72;5051459;28;20184;-75
2022/03/19 03:04:06;;;;;;;20.43;16.23;;;;;;;-3.88;63.08;94615.41;5068419;28;20236;-74
2022/03/19 03:06:42;;;;;;;18.17;16.23;;;;;;;-3.60;63.65;94627.19;5069043;28;20223;-74
2022/03/19 03:09:09;;;;;;;18.50;16.57;;;;;;;-3.93;63.57;94626.03;5068493;28;20227;-75
2022/03/19 03:11:36;;;;;;;22.53;17.53;;;;;;;-3.59;63.48;94628.78;5051615;28;20313;-75
2022/03/19 03:14:02;;;;;;;20.80;17.33;;;;;;;-3.60;62.85;94604.22;5050560;28;20280;-74
2022/03/19 03:16:29;;;;;;;21.93;17.50;;;;;;;-3.88;63.11;94595.81;5068859;28;20228;-75
2022/03/19 03:18:58;;;;;;;19.93;17.93;;;;;;;-3.75;63.60;94601.34;5068885;28;20237;-74
2022/03/19 03:21:25;;;;;;;22.93;17.50;;;;;;;-3.83;63.73;94583.41;5069252;28;20193;-74
2022/03/19 03:23:51;;;;;;;20.83;17.73;;;;;;;-3.94;64.07;94621.06;5068462;28;20248;-74
2022/03/19 03:26:17;;;;;;;31.20;20.50;;;;;;;-4.06;64.18;94619.66;5068793;28;20197;-74
2022/03/19 03:28:42;;;;;;;30.27;20.73;;;;;;;-3.88;63.90;94610.31;5072096;28;20250;-74
2022/03/19 03:31:07;;;;;;;28.93;19.70;;;;;;;-4.30;64.63;94579.38;5074378;28;20193;-74
2022/03/19 03:33:33;;;;;;;22.93;17.90;;;;;;;-4.05;64.44;94599.13;5072226;28;20233;-74
2022/03/19 03:35:59;;;;;;;20.83;17.47;;;;;;;-3.86;63.42;94621.94;5073289;28;20213;-74
2022/03/19 03:38:24;;;;;;;17.90;15.67;;;;;;;-4.20;64.56;94592.88;5071907;28;20233;-74
2022/03/19 03:40:50;;;;;;;19.20;16.43;;;;;;;-4.00;64.06;94622.44;5073245;28;20189;-74
2022/03/19 03:43:17;;;;;;;18.20;16.50;;;;;;;-3.93;64.29;94612.47;5072668;28;20185;-75
2022/03/19 03:45:42;;;;;;;18.53;16.03;;;;;;;-4.02;64.61;94611.59;5072806;28;20899;-74
2022/03/19 03:48:09;;;;;;;18.13;13.67;;;;;;;-3.79;63.75;94617.91;5072694;28;20186;-74
2022/03/19 03:50:35;;;;;;;17.40;15.60;;;;;;;-4.29;64.73;94613.31;5072841;28;20207;-74
2022/03/19 03:53:03;;;;;;;14.80;13.50;;;;;;;-4.19;64.52;94588.59;5072862;28;20269;-74
2022/03/19 03:55:28;;;;;;;15.87;14.43;;;;;;;-4.69;65.76;94577.09;5071495;28;20236;-74
2022/03/19 03:57:54;;;;;;;16.27;14.57;;;;;;;-4.14;64.90;94619.56;5072959;28;20198;-75
2022/03/19 04:00:19;;;;;;;16.53;14.93;;;;;;;-4.20;64.47;94609.94;5072440;28;20228;-74
2022/03/19 04:02:45;;;;;;;17.17;15.67;;;;;;;-4.52;65.07;94589.13;5072380;28;20272;-75
2022/03/19 04:05:10;;;;;;;16.13;14.43;;;;;;;-4.83;66.53;94590.28;5074376;28;20233;-75
2022/03/19 04:07:36;;;;;;;16.13;14.03;;;;;;;-4.54;65.32;94602.00;5072658;28;20185;-74
2022/03/19 04:10:01;;;;;;;14.90;13.60;;;;;;;-4.86;65.75;94604.09;5072535;28;21225;-75
2022/03/19 04:12:27;;;;;;;15.23;13.77;;;;;;;-4.62;65.81;94604.44;5072276;28;20182;-75
2022/03/19 04:14:52;;;;;;;15.57;14.07;;;;;;;-4.57;65.18;94621.84;5072082;28;20250;-74
2022/03/19 04:17:18;;;;;;;15.47;14.03;;;;;;;-4.64;64.04;94591.03;5072097;28;20229;-74
2022/03/19 04:19:44;;;;;;;16.97;14.60;;;;;;;-4.58;64.71;94608.31;5054324;28;20269;-75
2022/03/19 04:22:10;;;;;;;19.33;14.93;;;;;;;-4.69;64.93;94593.19;5072964;28;20261;-74
2022/03/19 04:24:36;;;;;;;17.63;15.77;;;;;;;-4.41;65.18;94596.59;5072145;28;20230;-75
2022/03/19 04:27:01;;;;;;;16.63;15.03;;;;;;;-4.52;65.00;94619.69;5053535;28;20210;-74
2022/03/19 04:29:27;;;;;;;18.60;14.73;;;;;;;-4.54;65.53;94613.94;5071457;28;20221;-75
2022/03/19 04:31:52;;;;;;;16.87;15.07;;;;;;;-4.67;66.14;94621.91;5073986;28;20180;-75
2022/03/19 04:34:18;;;;;;;16.30;14.80;;;;;;;-4.39;65.30;94612.56;5053910;28;20257;-74
2022/03/19 04:36:44;;;;;;;16.77;15.00;;;;;;;-4.15;65.16;94620.50;5072480;28;20223;-74
2022/03/19 04:39:10;;;;;;;17.63;15.90;;;;;;;-4.28;64.88;94612.38;5070941;28;20259;-75
2022/03/19 04:41:36;;;;;;;16.90;15.47;;;;;;;-4.57;65.00;94596.38;5072134;28;20209;-74
2022/03/19 04:44:04;;;;;;;14.67;13.43;;;;;;;-4.56;65.03;94592.91;5070421;28;20296;-74
2022/03/19 04:46:29;;;;;;;14.07;12.80;;;;;;;-4.05;63.96;94609.31;5072242;28;20189;-74
2022/03/19 04:48:56;;;;;;;15.47;13.97;;;;;;;-4.16;63.81;94585.75;5071063;28;21201;-74
2022/03/19 04:51:29;;;;;;;16.10;14.53;;;;;;;-4.06;63.07;94601.81;5071208;28;20201;-74
2022/03/19 04:53:54;;;;;;;15.80;14.40;;;;;;;-3.97;62.82;94611.16;5068142;28;20288;-74
2022/03/19 04:56:24;;;;;;;17.33;15.03;;;;;;;-4.08;64.06;94619.00;5070230;28;20216;-75
2022/03/19 04:58:56;;;;;;;14.67;13.53;;;;;;;-3.99;63.96;94618.13;5069728;28;20264;-74
2022/03/19 05:01:25;;;;;;;15.30;13.70;;;;;;;-3.75;62.94;94611.56;5070061;28;20190;-74
2022/03/19 05:03:51;;;;;;;16.57;14.97;;;;;;;-3.63;63.41;94624.91;5068813;28;20225;-75
2022/03/19 05:06:16;;;;;;;16.17;14.57;;;;;;;-3.38;63.61;94619.13;5071272;28;20200;-74
2022/03/19 05:08:41;;;;;;;14.40;13.27;;;;;;;-3.31;63.05;94597.13;5070914;28;20233;-84
2022/03/19 05:11:13;;;;;;;15.27;13.87;;;;;;;-3.50;63.19;94610.03;5071283;28;20181;-80
2022/03/19 05:13:52;;;;;;;15.63;13.97;;;;;;;-3.84;65.55;94606.50;5051919;28;20232;-81
2022/03/19 05:16:18;;;;;;;15.70;14.30;;;;;;;-3.44;64.27;94604.38;5070334;28;20208;-83
2022/03/19 05:18:43;;;;;;;15.30;14.00;;;;;;;-3.01;63.67;94617.19;5053487;28;20260;-84
2022/03/19 05:21:12;;;;;;;16.33;14.57;;;;;;;-2.90;63.50;94614.41;5052671;28;20192;-84
2022/03/19 05:23:37;;;;;;;16.93;15.07;;;;;;;-3.05;64.69;94597.22;5069698;28;20237;-85
2022/03/19 05:26:06;;;;;;;14.93;13.47;;;;;;;-2.77;62.32;94598.69;5070397;28;20212;-85
2022/03/19 05:28:31;;;;;;;20.93;16.70;;;;;;;-2.90;63.86;94609.31;5069316;28;20221;-84
2022/03/19 05:30:57;;;;;;;19.27;17.13;;;;;;;-2.80;59.12;94610.00;5052121;28;20197;-85
2022/03/19 05:34:29;;;;;;;25.70;18.97;;;;;;;-2.98;58.39;94576.03;5052179;28;20247;-88
2022/03/19 05:36:10;;;;;;;24.87;20.27;;;;;;;-2.87;58.67;94598.78;5070446;28;20280;-85
2022/03/19 05:38:35;;;;;;;23.40;19.70;;;;;;;-2.91;60.85;94630.69;5070897;28;20218;-86
2022/03/19 05:41:01;;;;;;;34.53;21.27;;;;;;;-2.98;60.01;94581.13;5070706;28;20192;-85
2022/03/19 05:43:26;;;;;;;31.70;22.73;;;;;;;-2.75;59.77;94618.03;5068656;28;20229;-75
2022/03/19 05:45:52;;;;;;;34.63;26.03;;;;;;;-2.50;58.93;94637.69;5068805;28;20212;-74
2022/03/19 05:48:17;;;;;;;34.87;26.07;;;;;;;-2.43;58.77;94623.34;5069027;28;20196;-74
2022/03/19 05:50:43;;;;;;;36.17;25.63;;;;;;;-2.60;59.69;94646.41;5068150;28;20190;-82
2022/03/19 05:53:08;;;;;;;40.13;26.43;;;;;;;-2.54;60.38;94635.59;5065779;28;20186;-79
2022/03/19 05:55:33;;;;;;;36.40;25.77;;;;;;;-2.77;61.38;94622.47;5068610;28;20181;-78
2022/03/19 05:57:59;;;;;;;38.37;25.13;;;;;;;-2.62;60.31;94595.44;5050858;28;20253;-77
2022/03/19 06:00:24;;;;;;;37.50;27.33;;;;;;;-2.61;60.71;94607.25;5068908;28;20213;-75
2022/03/19 06:02:50;;;;;;;36.87;26.43;;;;;;;-2.52;61.00;94613.25;5069116;28;20197;-74
2022/03/19 06:05:15;;;;;;;35.37;25.50;;;;;;;-2.72;60.88;94602.38;5067094;28;20231;-76
2022/03/19 06:07:40;;;;;;;36.50;27.50;;;;;;;-2.20;58.90;94603.16;5050595;28;20209;-76
2022/03/19 06:10:07;;;;;;;37.57;27.17;;;;;;;-2.18;59.27;94617.41;5049111;28;20213;-77
2022/03/19 06:12:33;;;;;;;39.67;27.60;;;;;;;-2.18;58.67;94602.06;5068139;28;20193;-78
2022/03/19 06:14:59;;;;;;;38.53;28.07;;;;;;;-1.85;59.24;94634.50;5067548;28;20225;-78
2022/03/19 06:17:24;;;;;;;35.10;23.87;;;;;;;-2.01;57.69;94596.03;5067401;28;20315;-82
2022/03/19 06:19:50;;;;;;;30.70;25.40;;;;;;;-1.68;57.85;94641.28;5067645;28;20271;-78
2022/03/19 06:22:16;;;;;;;29.40;22.20;;;;;;;-1.69;57.96;94633.75;5072836;28;20193;-86
2022/03/19 06:24:41;;;;;;;30.10;21.50;;;;;;;-1.67;57.75;94637.75;5066560;28;20317;-78
2022/03/19 06:27:07;;;;;;;36.37;22.47;;;;;;;-1.85;58.08;94629.38;5067399;28;20184;-78
2022/03/19 06:29:33;;;;;;;29.27;21.70;;;;;;;-1.81;58.38;94615.34;5064826;28;20327;-81
2022/03/19 06:31:58;;;;;;;25.83;21.40;;;;;;;-1.52;57.43;94634.59;5066317;28;20193;-84
2022/03/19 06:34:24;;;;;;;26.17;21.60;;;;;;;-1.39;58.05;94622.16;5068106;28;20232;-76
2022/03/19 06:39:33;;;;;;;24.33;19.13;;;;;;;-0.81;55.44;94635.69;5070697;28;20232;-80
2022/03/19 06:41:59;;;;;;;21.00;18.13;;;;;;;-0.85;53.53;94645.47;5067828;28;20244;-80
2022/03/19 06:44:24;;;;;;;21.97;19.20;;;;;;;-1.23;54.77;94614.50;5066767;28;20217;-81
2022/03/19 06:46:50;;;;;;;20.17;18.07;;;;;;;-0.99;53.69;94617.09;5067255;28;20190;-79
2022/03/19 06:49:15;;;;;;;19.90;17.80;;;;;;;-0.77;53.14;94634.41;5067241;28;20267;-75
2022/03/19 06:51:41;;;;;;;20.47;17.47;;;;;;;-0.75;53.61;94655.56;5050685;28;20228;-83
2022/03/19 06:54:06;;;;;;;17.97;16.07;;;;;;;-1.55;53.46;94573.47;5068871;28;20221;-74
2022/03/19 06:56:32;;;;;;;18.70;16.97;;;;;;;-1.34;54.79;94636.13;5066076;28;20209;-78
2022/03/19 06:58:57;;;;;;;17.50;15.70;;;;;;;-1.14;54.22;94652.00;5042704;28;20243;-82
2022/03/19 07:01:23;;;;;;;18.60;16.63;;;;;;;-1.22;55.22;94651.97;5070776;28;20202;-77
2022/03/19 07:03:48;;;;;;;17.43;15.63;;;;;;;-0.96;55.46;94638.06;5050884;28;20257;-78
2022/03/19 07:06:18;;;;;;;18.77;17.03;;;;;;;-0.64;54.72;94611.66;5051237;28;20208;-76
2022/03/19 07:08:44;;;;;;;18.43;16.43;;;;;;;-0.49;54.61;94635.66;5067845;28;20231;-75
2022/03/19 07:11:09;;;;;;;23.07;17.83;;;;;;;-0.38;51.93;94632.78;5069375;28;20965;-78
2022/03/19 07:13:36;;;;;;;18.97;17.07;;;;;;;-0.11;52.05;94624.69;5070563;28;20237;-79
2022/03/19 07:16:03;;;;;;;20.27;18.20;;;;;;;0.24;51.39;94637.09;5049660;28;20213;-80
2022/03/19 07:18:28;;;;;;;24.47;18.93;;;;;;;0.26;52.04;94637.72;5067753;28;20224;-76
2022/03/19 07:20:54;;;;;;;19.20;17.07;;;;;;;0.64;49.31;94626.63;5066916;28;20303;-81
2022/03/19 07:23:19;;;;;;;19.43;17.27;;;;;;;0.75;48.46;94649.38;5067928;28;20188;-79
2022/03/19 07:25:45;;;;;;;18.83;16.43;;;;;;;0.76;48.66;94639.91;5068117;28;20201;-79
2022/03/19 07:28:17;;;;;;;17.93;16.13;;;;;;;0.71;46.27;94635.28;5065903;28;20244;-77
2022/03/19 07:30:43;;;;;;;17.97;16.17;;;;;;;1.08;43.80;94640.50;5049942;28;20287;-79
2022/03/19 07:33:09;;;;;;;18.70;16.90;;;;;;;1.14;42.52;94631.28;5066786;28;20181;-79
2022/03/19 07:35:35;;;;;;;16.27;14.67;;;;;;;0.78;41.20;94638.75;5049970;28;20196;-79
2022/03/19 07:38:05;;;;;;;18.63;16.70;;;;;;;1.32;41.54;94649.81;5049940;28;20196;-78
2022/03/19 07:43:16;;;;;;;18.17;16.30;;;;;;;1.12;41.15;94615.25;5065749;28;20207;-79
2022/03/19 07:45:42;;;;;;;18.03;16.23;;;;;;;1.10;42.62;94645.47;5068348;28;20197;-78
2022/03/19 07:48:09;;;;;;;18.43;16.50;;;;;;;1.41;44.11;94644.44;5067352;28;20715;-81
2022/03/19 07:50:37;;;;;;;18.90;16.53;;;;;;;1.50;44.12;94630.53;5068630;28;20182;-82
2022/03/19 07:53:03;;;;;;;16.90;15.20;;;;;;;1.29;42.62;94652.75;5067420;28;20196;-81
2022/03/19 07:55:28;;;;;;;18.30;16.50;;;;;;;1.29;43.73;94639.88;5048972;28;20195;-76
2022/03/19 07:57:54;;;;;;;19.17;17.13;;;;;;;1.62;44.77;94648.91;5068451;28;20753;-77
2022/03/19 08:00:20;;;;;;;18.47;16.77;;;;;;;1.78;42.51;94656.50;5067538;28;20221;-76
2022/03/19 08:02:45;;;;;;;22.40;18.20;;;;;;;1.59;43.24;94621.75;5050299;28;20253;-75
2022/03/19 08:05:12;;;;;;;19.30;16.10;;;;;;;1.21;41.66;94612.44;5067592;28;20225;-75
2022/03/19 08:07:38;;;;;;;18.43;16.53;;;;;;;1.44;41.64;94661.28;5067745;28;20217;-74
2022/03/19 08:10:08;;;;;;;16.27;14.87;;;;;;;1.34;40.44;94661.53;5049243;28;20228;-75
2022/03/19 08:12:35;;;;;;;18.53;16.73;;;;;;;1.38;41.91;94656.84;5067523;28;20202;-74
2022/03/19 08:15:03;;;;;;;17.90;16.10;;;;;;;1.81;40.56;94663.88;5069237;28;20232;-74
2022/03/19 08:17:28;;;;;;;18.83;16.37;;;;;;;1.52;39.32;94654.31;5071465;28;20225;-74
2022/03/19 08:19:58;;;;;;;18.60;16.37;;;;;;;1.46;40.27;94652.41;5072893;28;20259;-75
2022/03/19 08:22:25;;;;;;;20.13;16.27;;;;;;;1.58;41.06;94651.06;5073885;28;20194;-75
2022/03/19 08:24:52;;;;;;;17.23;15.80;;;;;;;1.75;39.81;94653.47;5071197;28;20240;-76
2022/03/19 08:27:18;;;;;;;17.03;14.83;;;;;;;1.61;40.24;94632.69;5071778;28;20189;-75
2022/03/19 08:29:44;;;;;;;16.53;14.83;;;;;;;1.64;40.16;94629.75;5071709;28;20222;-75
2022/03/19 08:32:10;;;;;;;25.57;16.43;;;;;;;1.51;39.96;94633.88;5071913;28;20185;-76
2022/03/19 08:34:37;;;;;;;17.70;15.80;;;;;;;1.71;40.78;94655.59;5072906;28;20248;-76
2022/03/19 08:37:03;;;;;;;17.70;16.00;;;;;;;1.45;39.92;94653.41;5072005;28;20308;-76
2022/03/19 08:42:12;;;;;;;19.73;17.63;;;;;;;1.25;41.36;94598.25;5072428;28;20199;-75
2022/03/19 08:44:38;;;;;;;17.97;16.07;;;;;;;1.67;39.98;94642.28;5055261;28;20248;-75
2022/03/19 08:47:04;;;;;;;18.00;16.10;;;;;;;1.90;39.73;94644.00;5071944;28;20189;-76
2022/03/19 08:49:29;;;;;;;19.03;17.03;;;;;;;2.02;38.95;94647.75;5070338;28;20213;-76
2022/03/19 08:51:55;;;;;;;18.20;16.30;;;;;;;2.09;39.72;94646.03;5054374;28;20186;-75
2022/03/19 08:54:20;;;;;;;19.90;15.57;;;;;;;2.00;40.27;94645.34;5070665;28;20220;-78
2022/03/19 08:56:49;;;;;;;19.63;17.70;;;;;;;2.13;40.72;94642.16;5071367;28;20285;-79
2022/03/19 08:59:16;;;;;;;20.47;17.33;;;;;;;1.91;39.51;94643.03;5067806;28;20267;-79
2022/03/19 09:01:44;;;;;;;19.57;17.80;;;;;;;1.45;39.33;94640.53;5051858;28;20273;-82
2022/03/19 09:04:11;;;;;;;19.43;16.97;;;;;;;1.46;41.49;94631.81;5050900;28;20229;-81
2022/03/19 09:06:38;;;;;;;17.63;15.83;;;;;;;1.61;40.65;94644.75;5052021;28;20201;-84
2022/03/19 09:09:04;;;;;;;18.43;16.57;;;;;;;1.88;40.12;94641.59;5052517;28;21073;-82
2022/03/19 09:11:32;;;;;;;18.40;16.60;;;;;;;1.51;40.30;94610.72;5069497;28;20196;-79
2022/03/19 09:13:58;;;;;;;18.77;16.87;;;;;;;1.33;42.14;94616.19;5069590;28;20309;-77
2022/03/19 09:16:24;;;;;;;18.83;16.77;;;;;;;1.79;40.12;94610.97;5069810;28;20276;-78
2022/03/19 09:18:50;;;;;;;18.20;16.33;;;;;;;1.68;40.85;94643.09;5069794;28;21023;-78
2022/03/19 09:21:16;;;;;;;18.87;16.03;;;;;;;1.75;40.37;94632.88;5069771;28;20245;-81
2022/03/19 09:23:42;;;;;;;18.00;16.37;;;;;;;1.85;40.39;94608.47;5070240;28;20233;-79
2022/03/19 09:26:07;;;;;;;22.40;17.90;;;;;;;1.59;39.97;94605.50;5070268;28;20189;-78
2022/03/19 09:28:33;;;;;;;22.53;15.77;;;;;;;1.67;40.66;94626.03;5069927;28;20249;-80
2022/03/19 09:30:59;;;;;;;17.67;15.77;;;;;;;1.82;40.50;94597.72;5070016;28;20197;-80
2022/03/19 09:33:24;;;;;;;17.73;15.87;;;;;;;2.65;39.96;94632.50;5069785;28;20251;-82
2022/03/19 09:35:50;;;;;;;17.60;15.90;;;;;;;2.79;37.41;94640.22;5069697;28;20264;-80
2022/03/19 09:38:17;;;;;;;18.20;16.47;;;;;;;2.58;39.51;94636.78;5069658;28;20212;-81
2022/03/19 09:40:43;;;;;;;17.07;15.37;;;;;;;2.81;38.70;94647.75;5069184;28;20220;-81
2022/03/19 09:43:09;;;;;;;17.57;16.00;;;;;;;2.86;37.92;94611.91;5066589;28;20245;-83
2022/03/19 09:45:35;;;;;;;16.90;15.30;;;;;;;3.14;36.60;94643.75;5068724;28;20220;-81
2022/03/19 09:48:01;;;;;;;18.13;16.30;;;;;;;2.91;39.89;94637.97;5069011;28;20214;-81
2022/03/19 09:50:28;;;;;;;19.13;16.67;;;;;;;2.92;37.04;94629.25;5051246;28;20274;-82
2022/03/19 09:52:57;;;;;;;24.47;18.67;;;;;;;2.89;39.14;94627.03;5052650;28;20189;-84
2022/03/19 09:55:27;;;;;;;17.17;15.53;;;;;;;3.25;36.96;94630.38;5069158;28;20221;-81
2022/03/19 09:57:54;;;;;;;18.77;16.97;;;;;;;3.24;36.34;94633.91;5051906;28;20236;-80
2022/03/19 10:00:24;;;;;;;17.23;15.70;;;;;;;3.31;37.92;94614.94;5069721;28;20228;-81
2022/03/19 10:02:55;;;;;;;18.33;15.40;;;;;;;4.01;36.35;94625.22;5069655;28;20211;-78
2022/03/19 10:10:53;;;;;;;19.20;17.50;;;;;;;3.98;36.14;94592.00;5069944;28;20223;-79
2022/03/19 10:13:18;;;;;;;18.47;16.40;;;;;;;3.99;36.25;94624.59;5068485;28;20272;-79
2022/03/19 10:15:44;;;;;;;17.73;16.03;;;;;;;3.52;35.68;94596.03;5069114;28;20188;-78
2022/03/19 10:18:10;;;;;;;20.57;16.27;;;;;;;3.37;36.73;94628.88;5069418;28;20300;-77
2022/03/19 10:20:37;;;;;;;17.50;16.00;;;;;;;3.14;38.38;94607.63;5068816;28;20251;-77
2022/03/19 10:23:04;;;;;;;18.17;16.47;;;;;;;2.80;38.02;94610.06;5068533;28;20200;-77
2022/03/19 10:25:29;;;;;;;16.87;15.17;;;;;;;2.55;39.28;94585.59;5050681;28;20212;-76
2022/03/19 10:28:11;;;;;;;18.67;16.70;;;;;;;2.87;40.18;94610.94;5068210;28;20173;-77
2022/03/19 10:30:40;;;;;;;18.07;16.30;;;;;;;2.78;39.95;94614.59;5068406;28;20221;-77
2022/03/19 10:33:10;;;;;;;17.80;16.13;;;;;;;2.43;38.78;94623.13;5068398;28;20170;-77
2022/03/19 10:35:41;;;;;;;16.33;14.77;;;;;;;2.32;39.89;94621.78;5069683;28;20253;-77
2022/03/19 10:38:23;;;;;;;18.23;16.33;;;;;;;1.95;40.79;94608.19;5068695;28;20181;-77
2022/03/19 10:40:51;;;;;;;17.03;15.30;;;;;;;2.13;39.83;94613.81;5069880;28;20200;-76
2022/03/19 10:43:22;;;;;;;18.97;17.13;;;;;;;1.89;41.55;94593.47;5069289;28;20186;-76
2022/03/19 10:45:52;;;;;;;18.90;17.23;;;;;;;2.34;40.61;94613.88;5071284;28;20184;-77
2022/03/19 10:48:19;;;;;;;18.70;14.93;;;;;;;2.75;39.28;94617.53;5051508;28;20173;-77
2022/03/19 10:50:44;;;;;;;16.63;15.00;;;;;;;2.74;39.99;94587.59;5051668;28;20240;-77
2022/03/19 10:53:10;;;;;;;17.40;15.57;;;;;;;2.94;38.85;94604.84;5068654;28;20181;-77
2022/03/19 10:55:36;;;;;;;16.50;14.90;;;;;;;3.00;38.65;94611.06;5069295;28;20216;-76
2022/03/19 10:58:02;;;;;;;17.27;15.93;;;;;;;2.89;39.16;94614.94;5069380;28;20185;-76
2022/03/19 11:00:28;;;;;;;17.07;15.53;;;;;;;2.74;39.57;94611.59;5068771;28;20217;-76
2022/03/19 11:02:57;;;;;;;17.47;15.93;;;;;;;2.90;39.15;94610.56;5069662;28;22015;-77
2022/03/19 11:05:24;;;;;;;16.67;15.17;;;;;;;2.96;39.67;94594.34;5068281;28;20255;-76
2022/03/19 11:07:51;;;;;;;17.10;15.40;;;;;;;3.18;38.20;94604.50;5069497;28;21157;-76
2022/03/19 11:10:19;;;;;;;19.50;16.00;;;;;;;2.91;38.19;94599.28;5069747;28;20245;-76
2022/03/19 11:12:50;;;;;;;17.73;16.10;;;;;;;3.02;39.01;94599.56;5069033;28;20269;-75
2022/03/19 11:15:19;;;;;;;17.57;15.87;;;;;;;2.52;39.59;94599.63;5051481;28;20319;-73
2022/03/19 11:17:49;;;;;;;17.03;15.27;;;;;;;2.35;40.47;94603.38;5068943;28;20229;-75
2022/03/19 11:20:14;;;;;;;16.30;14.80;;;;;;;1.97;40.67;94583.06;5067984;28;20227;-75
2022/03/19 11:22:43;;;;;;;17.33;15.83;;;;;;;1.84;40.89;94595.78;5069384;28;20197;-75
2022/03/19 11:25:11;;;;;;;16.43;14.90;;;;;;;1.68;41.43;94584.66;5051422;28;20229;-76
2022/03/19 11:27:42;;;;;;;17.37;15.50;;;;;;;1.60;41.87;94577.00;5068901;28;20212;-76
2022/03/19 11:30:22;;;;;;;17.63;16.03;;;;;;;1.74;42.37;94574.63;5050957;28;20224;-77
2022/03/19 11:32:59;;;;;;;16.87;15.17;;;;;;;2.03;40.79;94587.50;5068316;28;20200;-77
2022/03/19 11:35:26;;;;;;;16.67;15.17;;;;;;;2.00;40.78;94568.06;5050573;28;20224;-77